Terminal Aerodrome Forecast
Issued by NWS Binghamton, NY

Home | Current Version | Previous Version | Text Only | Print | Product List | Glossary On
Versions: 1 2 3 4 5 6 7 8 9 10 11 12 13 14 15 16 17
645
FTUS41 KBGM 250537
TAFSYR
TAF
KSYR 250537Z 2506/2606 23004KT P6SM FEW250
     FM251600 27008KT P6SM SCT250
     FM251800 28010G20KT P6SM BKN150
     FM252300 29007KT P6SM SCT200
     FM260300 VRB03KT P6SM SCT250=

USA.gov is the U.S. government's official web portal to all federal, state and local government web resources and services.